createdAt,value
2018-09-16T00:00:49.359Z,101767.14
2018-09-16T00:03:19.152Z,101768.91
2018-09-16T00:05:48.981Z,101775.11
2018-09-16T00:08:18.803Z,101772.02
2018-09-16T00:10:48.562Z,101777.76
2018-09-16T00:13:18.789Z,101775.15
2018-09-16T00:15:48.975Z,101778.25
2018-09-16T00:18:18.743Z,101778.69
2018-09-16T00:20:48.533Z,101787.53
2018-09-16T00:23:18.447Z,101782.67
2018-09-16T00:25:48.291Z,101782.24
2018-09-16T00:28:37.418Z,101788.42
2018-09-16T00:31:07.809Z,101796.42
2018-09-16T00:33:37.617Z,101792.91
2018-09-16T00:36:07.623Z,101792.06
2018-09-16T00:38:37.437Z,101791.62
2018-09-16T00:41:07.321Z,101796.53
2018-09-16T00:43:37.117Z,101798.70
2018-09-16T00:46:07.034Z,101800.47
2018-09-16T00:48:36.799Z,101799.16
2018-09-16T00:51:06.701Z,101796.95
2018-09-16T00:53:36.554Z,101795.17
2018-09-16T00:56:06.511Z,101790.36
2018-09-16T00:58:36.324Z,101794.34
2018-09-16T01:01:06.095Z,101797.43
2018-09-16T01:03:35.943Z,101799.20
2018-09-16T01:06:10.878Z,101790.41
2018-09-16T01:08:40.397Z,101802.30
2018-09-16T01:11:11.954Z,101799.64
2018-09-16T01:13:42.798Z,101806.71
2018-09-16T01:16:12.600Z,101806.27
2018-09-16T01:18:42.636Z,101806.75
2018-09-16T01:21:13.609Z,101802.33
2018-09-16T01:23:43.355Z,101804.98
2018-09-16T01:26:13.941Z,101805.02
2018-09-16T01:28:45.689Z,101803.70
2018-09-16T01:31:15.697Z,101799.72
2018-09-16T01:33:45.631Z,101802.41
2018-09-16T01:36:17.642Z,101797.55
2018-09-16T01:38:55.265Z,101794.93
2018-09-16T01:41:27.086Z,101795.81
2018-09-16T01:43:56.846Z,101793.61
2018-09-16T01:46:26.789Z,101795.81
2018-09-16T01:48:56.608Z,101793.16
2018-09-16T01:51:27.147Z,101793.61
2018-09-16T01:53:57.305Z,101790.96
2018-09-16T01:56:27.186Z,101786.54
2018-09-16T01:58:58.932Z,101792.72
2018-09-16T02:01:28.694Z,101797.17
2018-09-16T02:03:58.881Z,101794.52
2018-09-16T02:06:29.784Z,101795.87
2018-09-16T02:09:01.098Z,101792.78
2018-09-16T02:11:32.271Z,101791.45
2018-09-16T02:14:04.129Z,101787.92
2018-09-16T02:16:35.870Z,101782.66
2018-09-16T02:19:05.733Z,101789.72
2018-09-16T02:21:36.642Z,101785.30
2018-09-16T02:24:06.959Z,101787.06
2018-09-16T02:26:38.102Z,101792.80
2018-09-16T02:29:10.570Z,101790.16
2018-09-16T02:31:40.317Z,101787.07
2018-09-16T02:34:11.802Z,101787.95
2018-09-16T02:36:42.704Z,101791.48
2018-09-16T02:39:12.608Z,101787.09
2018-09-16T02:41:44.530Z,101788.86
2018-09-16T02:44:14.446Z,101785.77
2018-09-16T02:46:44.306Z,101784.88
2018-09-16T02:49:15.551Z,101781.79
2018-09-16T02:51:45.377Z,101777.41
2018-09-16T02:54:15.224Z,101777.40
2018-09-16T02:56:46.046Z,101774.78
2018-09-16T02:59:16.544Z,101775.66
2018-09-16T03:01:46.340Z,101779.63
2018-09-16T03:04:17.001Z,101781.84
2018-09-16T03:06:50.708Z,101775.69
2018-09-16T03:09:20.253Z,101782.30
2018-09-16T03:11:50.447Z,101780.11
2018-09-16T03:14:20.901Z,101776.57
2018-09-16T03:16:50.821Z,101778.80
2018-09-16T03:19:20.593Z,101781.44
2018-09-16T03:21:51.209Z,101776.58
2018-09-16T03:24:21.061Z,101777.02
2018-09-16T03:26:50.841Z,101774.38
2018-09-16T03:29:26.283Z,101775.27
2018-09-16T03:31:56.114Z,101768.66
2018-09-16T03:34:25.921Z,101768.64
2018-09-16T03:36:56.751Z,101766.44
2018-09-16T03:39:26.558Z,101763.78
2018-09-16T03:41:56.390Z,101768.66
2018-09-16T03:44:26.293Z,101765.12
2018-09-16T03:46:56.157Z,101768.20
2018-09-16T03:49:25.561Z,101765.55
2018-09-16T03:51:55.937Z,101766.88
2018-09-16T03:54:26.621Z,101762.03
2018-09-16T03:56:58.365Z,101761.58
2018-09-16T03:59:28.197Z,101760.23
2018-09-16T04:01:58.772Z,101758.02
2018-09-16T04:04:28.701Z,101759.78
2018-09-16T04:06:58.432Z,101761.10
2018-09-16T04:09:28.879Z,101765.96
2018-09-16T04:11:58.837Z,101762.02
2018-09-16T04:14:28.661Z,101758.45
2018-09-16T04:16:58.573Z,101758.92
2018-09-16T04:19:28.894Z,101762.42
2018-09-16T04:21:58.683Z,101765.09
2018-09-16T04:24:28.496Z,101767.72
2018-09-16T04:26:58.250Z,101767.27
2018-09-16T04:29:28.110Z,101763.31
2018-09-16T04:31:57.913Z,101759.34
2018-09-16T04:34:28.250Z,101754.48
2018-09-16T04:36:58.085Z,101755.39
2018-09-16T04:39:28.191Z,101757.14
2018-09-16T04:41:57.936Z,101768.14
2018-09-16T04:44:27.770Z,101762.41
2018-09-16T04:46:57.501Z,101765.05
2018-09-16T04:49:27.555Z,101766.82
2018-09-16T04:51:57.952Z,101766.39
2018-09-16T04:54:27.741Z,101768.16
2018-09-16T04:56:58.109Z,101770.38
2018-09-16T04:59:28.552Z,101771.25
2018-09-16T05:01:58.348Z,101769.03
2018-09-16T05:04:28.362Z,101773.02
2018-09-16T05:06:58.153Z,101770.83
2018-09-16T05:09:28.380Z,101770.85
2018-09-16T05:11:58.281Z,101773.92
2018-09-16T05:14:28.067Z,101774.39
2018-09-16T05:16:57.868Z,101775.70
2018-09-16T05:19:28.444Z,101775.69
2018-09-16T05:21:58.329Z,101784.06
2018-09-16T05:24:33.856Z,101789.80
2018-09-16T05:27:05.310Z,101784.94
2018-09-16T05:29:35.778Z,101790.65
2018-09-16T05:32:06.596Z,101787.58
2018-09-16T05:34:36.483Z,101793.29
2018-09-16T05:37:06.572Z,101793.27
2018-09-16T05:39:36.400Z,101794.60
2018-09-16T05:42:06.185Z,101796.78
2018-09-16T05:44:36.361Z,101798.52
2018-09-16T05:47:06.385Z,101809.53
2018-09-16T05:49:36.850Z,101809.06
2018-09-16T05:52:06.634Z,101810.39
2018-09-16T05:54:37.246Z,101812.56
2018-09-16T05:57:07.173Z,101816.47
2018-09-16T05:59:36.582Z,101814.22
2018-09-16T06:02:06.601Z,101819.06
2018-09-16T06:04:36.386Z,101818.98
2018-09-16T06:07:06.782Z,101819.36
2018-09-16T06:09:36.552Z,101821.95
2018-09-16T06:12:06.373Z,101826.27
2018-09-16T06:14:36.104Z,101819.56
2018-09-16T06:17:06.509Z,101823.87
2018-09-16T06:19:36.211Z,101825.11
2018-09-16T06:22:05.974Z,101817.49
2018-09-16T06:24:35.701Z,101823.09
2018-09-16T06:27:05.512Z,101822.98
2018-09-16T06:29:35.400Z,101823.30
2018-09-16T06:32:05.184Z,101822.35
2018-09-16T06:34:34.848Z,101820.09
2018-09-16T06:37:04.652Z,101823.53
2018-09-16T06:39:34.090Z,101822.55
2018-09-16T06:42:03.883Z,101824.67
2018-09-16T06:44:34.677Z,101828.11
2018-09-16T06:47:04.548Z,101828.00
2018-09-16T06:49:35.956Z,101838.95
2018-09-16T06:52:08.053Z,101844.99
2018-09-16T06:54:38.571Z,101841.31
2018-09-16T06:57:09.020Z,101838.95
2018-09-16T06:59:38.804Z,101841.47
2018-09-16T07:02:08.871Z,101844.88
2018-09-16T07:04:39.771Z,101842.97
2018-09-16T07:07:14.041Z,101842.00
2018-09-16T07:09:44.846Z,101845.41
2018-09-16T07:12:16.814Z,101843.92
2018-09-16T07:14:47.198Z,101840.20
2018-09-16T07:17:17.660Z,101845.83
2018-09-16T07:19:48.311Z,101846.05
2018-09-16T07:22:18.142Z,101846.77
2018-09-16T07:24:49.005Z,101845.72
2018-09-16T07:27:18.997Z,101845.64
2018-09-16T07:29:48.908Z,101848.62
2018-09-16T07:32:19.032Z,101843.56
2018-09-16T07:34:49.872Z,101843.88
2018-09-16T07:37:19.436Z,101846.34
2018-09-16T07:39:50.930Z,101842.14
2018-09-16T07:42:22.168Z,101843.13
2018-09-16T07:44:52.030Z,101844.66
2018-09-16T07:47:21.871Z,101836.05
2018-09-16T07:49:51.876Z,101830.02
2018-09-16T07:52:21.751Z,101830.13
2018-09-16T07:54:51.945Z,101834.08
2018-09-16T07:57:21.818Z,101831.81
2018-09-16T07:59:51.928Z,101835.39
2018-09-16T08:02:22.044Z,101830.98
2018-09-16T08:04:52.072Z,101831.58
2018-09-16T08:07:22.174Z,101829.16
2018-09-16T08:12:32.138Z,101832.22
2018-09-16T08:15:02.095Z,101826.61
2018-09-16T08:17:31.946Z,101827.31
2018-09-16T08:20:02.062Z,101826.03
2018-09-16T08:22:32.258Z,101833.39
2018-09-16T08:25:02.300Z,101830.91
2018-09-16T08:27:32.242Z,101831.98
2018-09-16T08:30:02.486Z,101834.59
2018-09-16T08:32:32.484Z,101832.62
2018-09-16T08:35:02.832Z,101829.40
2018-09-16T08:37:32.979Z,101828.34
2018-09-16T08:40:03.168Z,101829.17
2018-09-16T08:42:33.320Z,101820.92
2018-09-16T08:45:03.235Z,101819.00
2018-09-16T08:47:33.635Z,101821.07
2018-09-16T08:50:03.562Z,101821.14
2018-09-16T08:52:33.616Z,101816.94
2018-09-16T08:55:03.567Z,101823.98
2018-09-16T08:57:33.482Z,101812.65
2018-09-16T09:00:03.316Z,101807.02
2018-09-16T09:02:33.216Z,101810.02
2018-09-16T09:05:03.001Z,101811.03
2018-09-16T09:07:33.390Z,101811.22
2018-09-16T09:10:03.218Z,101811.34
2018-09-16T09:12:32.935Z,101810.00
2018-09-16T09:15:02.720Z,101808.71
2018-09-16T09:17:32.495Z,101800.97
2018-09-16T09:20:02.552Z,101802.75
2018-09-16T09:22:32.435Z,101793.56
2018-09-16T09:25:02.334Z,101793.27
2018-09-16T09:27:32.105Z,101795.47
2018-09-16T09:30:01.885Z,101796.34
2018-09-16T09:32:31.722Z,101795.72
2018-09-16T09:35:01.729Z,101789.98
2018-09-16T09:37:31.639Z,101785.16
2018-09-16T09:40:02.235Z,101778.63
2018-09-16T09:42:31.943Z,101776.88
2018-09-16T09:45:01.773Z,101770.06
2018-09-16T09:47:31.135Z,101767.06
2018-09-16T09:50:01.197Z,101770.36
2018-09-16T09:52:31.047Z,101769.19
2018-09-16T09:55:03.037Z,101763.86
2018-09-16T09:57:32.876Z,101766.76
2018-09-16T10:00:02.675Z,101754.48
2018-09-16T10:02:33.765Z,101755.27
2018-09-16T10:05:03.621Z,101762.30
2018-09-16T10:07:34.589Z,101757.55
2018-09-16T10:10:04.457Z,101750.52
2018-09-16T10:12:34.274Z,101751.54
2018-09-16T10:15:05.390Z,101746.70
2018-09-16T10:17:35.095Z,101745.93
2018-09-16T10:20:04.974Z,101742.93
2018-09-16T10:22:34.753Z,101740.54
2018-09-16T10:25:05.296Z,101736.20
2018-09-16T10:27:35.146Z,101728.98
2018-09-16T10:30:04.946Z,101729.94
2018-09-16T10:32:34.641Z,101729.11
2018-09-16T10:35:04.504Z,101724.70
2018-09-16T10:37:34.307Z,101717.41
2018-09-16T10:40:04.048Z,101715.89
2018-09-16T10:42:33.784Z,101711.00
2018-09-16T10:45:03.590Z,101710.80
2018-09-16T10:47:33.765Z,101710.62
2018-09-16T10:50:03.534Z,101704.16
2018-09-16T10:52:35.340Z,101698.92
2018-09-16T10:55:06.562Z,101699.71
2018-09-16T10:57:42.673Z,101702.97
2018-09-16T11:00:13.016Z,101699.23
2018-09-16T11:02:42.724Z,101698.59
2018-09-16T11:05:12.627Z,101701.97
2018-09-16T11:07:42.690Z,101700.24
2018-09-16T11:10:12.618Z,101697.09
2018-09-16T11:12:42.537Z,101666.94
2018-09-16T11:15:12.389Z,101692.13
2018-09-16T11:17:42.490Z,101689.34
2018-09-16T11:20:12.582Z,101694.02
2018-09-16T11:22:42.568Z,101681.84
2018-09-16T11:25:12.385Z,101688.05
2018-09-16T11:27:42.350Z,101682.42
2018-09-16T11:30:12.156Z,101677.48
2018-09-16T11:32:42.030Z,101675.66
2018-09-16T11:35:11.834Z,101678.70
2018-09-16T11:37:41.729Z,101667.24
2018-09-16T11:40:11.563Z,101666.92
2018-09-16T11:42:41.317Z,101668.34
2018-09-16T11:45:11.149Z,101665.57
2018-09-16T11:47:40.994Z,101664.64
2018-09-16T11:50:10.885Z,101659.98
2018-09-16T11:52:40.673Z,101659.19
2018-09-16T11:55:10.593Z,101650.45
2018-09-16T11:57:42.028Z,101649.77
2018-09-16T12:00:13.079Z,101643.41
2018-09-16T12:02:43.175Z,101639.19
2018-09-16T12:05:13.181Z,101631.58
2018-09-16T12:07:43.051Z,101627.30
2018-09-16T12:10:12.892Z,101628.37
2018-09-16T12:15:46.932Z,101615.30
2018-09-16T12:18:17.806Z,101620.33
2018-09-16T12:20:47.794Z,101617.73
2018-09-16T12:23:17.729Z,101601.36
2018-09-16T12:25:48.641Z,101609.27
2018-09-16T12:28:18.530Z,101608.28
2018-09-16T12:30:49.243Z,101604.30
2018-09-16T12:33:20.625Z,101599.63
2018-09-16T12:35:51.257Z,101602.95
2018-09-16T12:38:22.241Z,101598.45
2018-09-16T12:40:52.759Z,101593.29
2018-09-16T12:43:24.868Z,101599.19
2018-09-16T12:45:54.750Z,101599.36
2018-09-16T12:48:24.638Z,101596.59
2018-09-16T12:50:55.265Z,101589.31
2018-09-16T12:53:25.804Z,101584.86
2018-09-16T12:55:56.215Z,101583.50
2018-09-16T12:58:26.751Z,101581.14
2018-09-16T13:00:57.097Z,101581.41
2018-09-16T13:03:27.726Z,101575.21
2018-09-16T13:05:57.562Z,101572.98
2018-09-16T13:08:29.085Z,101565.23
2018-09-16T13:11:00.513Z,101569.69
2018-09-16T13:13:31.075Z,101565.05
2018-09-16T13:16:02.012Z,101563.89
2018-09-16T13:18:33.501Z,101557.72
2018-09-16T13:21:04.445Z,101552.96
2018-09-16T13:23:36.105Z,101549.00
2018-09-16T13:26:06.356Z,101553.88
2018-09-16T13:28:38.464Z,101553.48
2018-09-16T13:31:09.039Z,101547.57
2018-09-16T13:33:39.400Z,101538.63
2018-09-16T13:36:09.529Z,101545.26
2018-09-16T13:38:39.536Z,101535.69
2018-09-16T13:41:09.501Z,101532.44
2018-09-16T13:43:39.285Z,101518.90
2018-09-16T13:46:10.011Z,101516.86
2018-09-16T13:48:40.809Z,101510.62
2018-09-16T13:51:10.887Z,101508.23
2018-09-16T13:53:40.750Z,101507.72
2018-09-16T13:56:10.507Z,101504.25
2018-09-16T13:58:40.373Z,101500.76
2018-09-16T14:01:11.977Z,101498.38
2018-09-16T14:03:41.751Z,101489.73
2018-09-16T14:06:11.435Z,101488.86
2018-09-16T14:08:41.412Z,101483.16
2018-09-16T14:11:11.641Z,101487.84
2018-09-16T14:13:41.377Z,101487.39
2018-09-16T14:16:11.425Z,101487.41
2018-09-16T14:18:41.817Z,101490.69
2018-09-16T14:21:11.529Z,101480.81
2018-09-16T14:23:41.692Z,101489.57
2018-09-16T14:26:11.499Z,101485.45
2018-09-16T14:28:41.579Z,101486.80
2018-09-16T14:31:11.370Z,101487.20
2018-09-16T14:33:41.168Z,101488.39
2018-09-16T14:36:10.888Z,101478.69
2018-09-16T14:38:40.689Z,101473.22
2018-09-16T14:41:10.542Z,101471.31
2018-09-16T14:43:41.160Z,101472.47
2018-09-16T14:46:11.024Z,101467.95
2018-09-16T14:48:41.605Z,101466.52
2018-09-16T14:51:11.914Z,101464.78
2018-09-16T14:53:41.659Z,101466.47
2018-09-16T14:56:11.388Z,101461.23
2018-09-16T14:58:41.243Z,101451.72
2018-09-16T15:01:11.465Z,101456.48
2018-09-16T15:03:41.869Z,101453.23
2018-09-16T15:06:11.640Z,101457.03
2018-09-16T15:08:42.775Z,101445.41
2018-09-16T15:11:13.241Z,101439.03
2018-09-16T15:13:43.121Z,101438.80
2018-09-16T15:16:13.506Z,101442.78
2018-09-16T15:18:44.696Z,101436.60
2018-09-16T15:21:14.830Z,101435.03
2018-09-16T15:23:47.028Z,101435.73
2018-09-16T15:29:45.463Z,101425.44
2018-09-16T15:32:17.098Z,101424.41
2018-09-16T15:59:24.627Z,101425.28
2018-09-16T16:01:55.359Z,101424.26
2018-09-16T16:04:27.826Z,101418.36
2018-09-16T16:06:57.791Z,101419.70
2018-09-16T16:09:29.135Z,101425.27
2018-09-16T16:11:59.019Z,101425.89
2018-09-16T16:14:29.114Z,101421.09
2018-09-16T16:16:58.948Z,101423.97
2018-09-16T16:19:29.286Z,101421.17
2018-09-16T16:21:59.241Z,101418.45
2018-09-16T16:24:29.242Z,101418.31
2018-09-16T16:26:59.225Z,101413.30
2018-09-16T16:29:29.067Z,101421.09
2018-09-16T16:31:58.980Z,101411.31
2018-09-16T16:34:28.839Z,101404.45
2018-09-16T16:36:58.661Z,101417.89
2018-09-16T16:42:07.684Z,101419.42
2018-09-16T16:44:38.365Z,101415.56
2018-09-16T16:47:08.863Z,101411.00
2018-09-16T16:49:39.626Z,101409.25
2018-09-16T16:52:09.531Z,101412.70
2018-09-16T16:54:39.695Z,101405.56
2018-09-16T16:57:09.944Z,101402.02
2018-09-16T16:59:39.931Z,101400.36
2018-09-16T17:02:09.886Z,101409.23
2018-09-16T17:04:39.863Z,101405.27
2018-09-16T17:07:09.770Z,101408.86
2018-09-16T17:09:39.692Z,101410.41
2018-09-16T17:12:09.247Z,101413.34
2018-09-16T17:14:39.125Z,101411.58
2018-09-16T17:17:09.378Z,101418.36
2018-09-16T17:19:39.663Z,101416.37
2018-09-16T17:22:09.287Z,101412.11
2018-09-16T17:24:39.453Z,101420.66
2018-09-16T17:27:12.694Z,101418.88
2018-09-16T17:29:47.465Z,101417.89
2018-09-16T17:32:17.738Z,101419.22
2018-09-16T17:34:51.959Z,101421.75
2018-09-16T17:37:24.266Z,101419.63
2018-09-16T17:39:54.663Z,101423.55
2018-09-16T17:42:24.817Z,101418.45
2018-09-16T17:45:00.572Z,101415.91
2018-09-16T17:47:31.548Z,101420.10
2018-09-16T17:50:01.817Z,101418.02
2018-09-16T17:52:32.128Z,101424.59
2018-09-16T17:55:02.113Z,101423.05
2018-09-16T17:57:32.120Z,101426.72
2018-09-16T18:00:01.970Z,101428.19
2018-09-16T18:02:34.875Z,101426.77
2018-09-16T18:05:05.224Z,101432.36
2018-09-16T18:07:35.057Z,101431.23
2018-09-16T18:10:05.598Z,101430.77
2018-09-16T18:12:35.406Z,101434.36
2018-09-16T18:15:05.288Z,101423.80
2018-09-16T18:17:35.765Z,101427.44
2018-09-16T18:20:05.989Z,101428.44
2018-09-16T18:22:35.851Z,101427.10
2018-09-16T18:25:05.757Z,101427.44
2018-09-16T18:27:35.619Z,101428.02
2018-09-16T18:30:05.885Z,101423.38
2018-09-16T18:32:35.589Z,101425.30
2018-09-16T18:35:05.082Z,101423.16
2018-09-16T18:37:34.892Z,101429.12
2018-09-16T18:40:04.924Z,101427.41
2018-09-16T18:42:35.522Z,101424.89
2018-09-16T18:45:05.006Z,101423.94
2018-09-16T18:47:34.846Z,101426.72
2018-09-16T18:50:04.714Z,101420.63
2018-09-16T18:52:34.335Z,101426.54
2018-09-16T18:55:04.119Z,101424.91
2018-09-16T18:57:33.924Z,101425.59
2018-09-16T19:00:03.773Z,101424.06
2018-09-16T19:02:33.547Z,101423.97
2018-09-16T19:05:03.367Z,101425.11
2018-09-16T19:07:33.231Z,101422.44
2018-09-16T19:10:02.997Z,101411.91
2018-09-16T19:12:32.787Z,101415.80
2018-09-16T19:15:02.549Z,101415.88
2018-09-16T19:17:31.944Z,101415.98
2018-09-16T19:20:01.772Z,101414.30
2018-09-16T19:22:31.803Z,101418.48
2018-09-16T19:25:02.079Z,101417.61
2018-09-16T19:27:31.859Z,101419.36
2018-09-16T19:30:01.739Z,101425.26
2018-09-16T19:32:32.104Z,101424.59
2018-09-16T19:35:01.848Z,101422.97
2018-09-16T19:37:32.290Z,101419.56
2018-09-16T19:40:02.089Z,101418.17
2018-09-16T19:42:31.809Z,101418.69
2018-09-16T19:45:01.444Z,101423.18
2018-09-16T19:47:31.127Z,101416.16
2018-09-16T19:50:00.551Z,101423.39
2018-09-16T19:52:30.306Z,101419.13
2018-09-16T19:54:59.769Z,101422.73
2018-09-16T19:57:29.558Z,101418.52
2018-09-16T19:59:59.419Z,101421.28
2018-09-16T20:02:29.290Z,101419.23
2018-09-16T20:04:59.042Z,101421.53
2018-09-16T20:07:28.698Z,101415.42
2018-09-16T20:09:58.609Z,101414.97
2018-09-16T20:12:28.393Z,101423.48
2018-09-16T20:14:58.527Z,101423.16
2018-09-16T20:17:28.310Z,101423.31
2018-09-16T20:19:57.741Z,101426.06
2018-09-16T20:22:27.574Z,101425.61
2018-09-16T20:24:57.027Z,101426.61
2018-09-16T20:27:26.786Z,101428.00
2018-09-16T20:29:56.593Z,101426.30
2018-09-16T20:32:26.356Z,101424.64
2018-09-16T20:34:55.770Z,101423.39
2018-09-16T20:37:25.583Z,101418.67
2018-09-16T20:39:54.955Z,101420.42
2018-09-16T20:42:24.670Z,101424.05
2018-09-16T20:44:54.409Z,101424.08
2018-09-16T20:47:24.219Z,101422.35
2018-09-16T20:49:53.970Z,101419.81
2018-09-16T20:52:23.749Z,101421.70
2018-09-16T20:54:54.677Z,101417.28
2018-09-16T20:57:24.409Z,101422.33
2018-09-16T20:59:54.153Z,101414.91
2018-09-16T21:02:23.897Z,101412.44
2018-09-16T21:04:53.723Z,101407.99
2018-09-16T21:07:23.621Z,101407.14
2018-09-16T21:09:53.467Z,101404.05
2018-09-16T21:12:23.205Z,101416.59
2018-09-16T21:14:52.923Z,101409.11
2018-09-16T21:17:22.661Z,101403.36
2018-09-16T21:19:52.422Z,101401.24
2018-09-16T21:22:22.082Z,101399.03
2018-09-16T21:24:51.925Z,101398.90
2018-09-16T21:27:21.712Z,101394.45
2018-09-16T21:29:51.491Z,101399.78
2018-09-16T21:32:21.245Z,101393.47
2018-09-16T21:34:50.999Z,101392.06
2018-09-16T21:37:20.703Z,101381.72
2018-09-16T21:39:50.432Z,101381.64
2018-09-16T21:42:20.194Z,101381.55
2018-09-16T21:44:49.901Z,101378.41
2018-09-16T21:47:19.681Z,101373.88
2018-09-16T21:49:49.003Z,101377.78
2018-09-16T21:52:18.775Z,101372.95
2018-09-16T21:54:48.480Z,101373.88
2018-09-16T21:57:18.225Z,101373.88
2018-09-16T21:59:47.973Z,101370.91
2018-09-16T22:02:17.725Z,101378.59
2018-09-16T22:04:47.194Z,101379.03
2018-09-16T22:07:16.984Z,101388.41
2018-09-16T22:09:46.674Z,101384.58
2018-09-16T22:12:16.470Z,101386.08
2018-09-16T22:14:46.221Z,101381.34
2018-09-16T22:17:16.001Z,101383.16
2018-09-16T22:19:45.794Z,101374.83
2018-09-16T22:22:15.500Z,101380.70
2018-09-16T22:24:45.259Z,101384.83
2018-09-16T22:27:14.959Z,101382.09
2018-09-16T22:29:44.665Z,101375.78
2018-09-16T22:32:14.381Z,101377.80
2018-09-16T22:34:44.125Z,101374.53
2018-09-16T22:37:13.816Z,101367.29
2018-09-16T22:39:43.495Z,101364.09
2018-09-16T22:42:13.244Z,101361.86
2018-09-16T22:44:42.946Z,101362.22
2018-09-16T22:47:12.901Z,101369.22
2018-09-16T22:49:42.668Z,101363.95
2018-09-16T22:52:12.400Z,101366.58
2018-09-16T22:54:42.156Z,101360.41
2018-09-16T22:57:11.880Z,101363.72
2018-09-16T22:59:41.696Z,101362.59
2018-09-16T23:02:11.480Z,101366.66
2018-09-16T23:04:41.192Z,101370.70
2018-09-16T23:07:10.944Z,101365.52
2018-09-16T23:09:40.668Z,101360.66
2018-09-16T23:12:10.462Z,101360.25
2018-09-16T23:14:40.245Z,101361.56
2018-09-16T23:17:10.036Z,101362.41
2018-09-16T23:19:39.732Z,101361.58
2018-09-16T23:22:09.457Z,101356.27
2018-09-16T23:24:39.140Z,101360.39
2018-09-16T23:27:08.821Z,101360.81
2018-09-16T23:29:38.768Z,101357.70
2018-09-16T23:32:08.584Z,101355.08
2018-09-16T23:34:38.328Z,101356.86
2018-09-16T23:37:08.120Z,101361.02
2018-09-16T23:39:37.892Z,101359.75
2018-09-16T23:42:08.112Z,101358.50
2018-09-16T23:44:37.840Z,101354.08
2018-09-16T23:47:08.027Z,101351.85
2018-09-16T23:49:37.815Z,101349.13
2018-09-16T23:52:07.700Z,101352.67
2018-09-16T23:54:37.500Z,101350.07
2018-09-16T23:57:07.200Z,101347.03
2018-09-16T23:59:36.952Z,101344.88
